Time;durP1;ratioP1;P1;durP2;ratioP2;P2;SDS_P1;SDS_P2;PMS_P1;PMS_P2;Temp;Humidity;BMP_temperature;BMP_pressure;BME280_temperature;BME280_humidity;BME280_pressure;Samples;Min_cycle;Max_cycle;Signal;HPM_P1;HPM_P2
2022/10/07 00:00:15;;;;;;;6.32;6.03;;;;;;;;;;4999429;28;20037;-72
2022/10/07 00:02:41;;;;;;;5.82;5.53;;;;;;;;;;4995921;28;20038;-71
2022/10/07 00:05:06;;;;;;;5.50;5.30;;;;;;;;;;4998807;28;20121;-71
2022/10/07 00:07:32;;;;;;;5.97;5.68;;;;;;;;;;5002846;28;20096;-71
2022/10/07 00:09:57;;;;;;;5.30;5.10;;;;;;;;;;4997942;28;20030;-71
2022/10/07 00:12:23;;;;;;;5.40;5.20;;;;;;;;;;5002361;28;20037;-70
2022/10/07 00:14:49;;;;;;;5.70;5.40;;;;;;;;;;5000677;28;20018;-71
2022/10/07 00:17:14;;;;;;;6.30;6.00;;;;;;;;;;4995293;28;20494;-71
2022/10/07 00:19:40;;;;;;;6.75;5.85;;;;;;;;;;4997698;28;20040;-71
2022/10/07 00:22:05;;;;;;;5.47;5.28;;;;;;;;;;5001098;28;20030;-71
2022/10/07 00:24:31;;;;;;;5.78;5.47;;;;;;;;;;5005976;28;20555;-71
2022/10/07 00:26:56;;;;;;;5.30;5.10;;;;;;;;;;4998040;28;20437;-71
2022/10/07 00:29:23;;;;;;;5.85;5.55;;;;;;;;;;5004116;28;20045;-71
2022/10/07 00:31:50;;;;;;;5.50;5.30;;;;;;;;;;4998010;28;20038;-70
2022/10/07 00:34:16;;;;;;;5.40;5.20;;;;;;;;;;5003835;28;20038;-71
2022/10/07 00:36:43;;;;;;;9.13;7.00;;;;;;;;;;4995788;28;20041;-71
2022/10/07 00:39:13;;;;;;;5.15;4.95;;;;;;;;;;5001023;28;20048;-70
2022/10/07 00:41:49;;;;;;;5.53;5.32;;;;;;;;;;5000170;28;20038;-71
2022/10/07 00:44:38;;;;;;;5.47;5.28;;;;;;;;;;5006761;28;20037;-71
2022/10/07 00:47:17;;;;;;;;;;;;;;;;;;5018651;28;20046;-71
2022/10/07 00:49:54;;;;;;;5.05;4.85;;;;;;;;;;4997922;28;19917;-71
2022/10/07 00:52:24;;;;;;;5.28;5.07;;;;;;;;;;4993026;28;20406;-71
2022/10/07 00:54:53;;;;;;;5.25;5.05;;;;;;;;;;5003069;28;20624;-71
2022/10/07 00:57:22;;;;;;;5.35;5.15;;;;;;;;;;4997003;28;20044;-71
2022/10/07 00:59:48;;;;;;;5.30;5.10;;;;;;;;;;4995552;28;20029;-71
2022/10/07 01:02:14;;;;;;;5.32;5.13;;;;;;;;;;4988189;28;20277;-71
2022/10/07 01:04:41;;;;;;;5.43;5.22;;;;;;;;;;5003762;28;20041;-71
2022/10/07 01:07:07;;;;;;;5.60;5.40;;;;;;;;;;5007674;28;20033;-71
2022/10/07 01:09:33;;;;;;;5.88;5.57;;;;;;;;;;5008962;28;20511;-71
2022/10/07 01:12:34;;;;;;;5.45;5.25;;;;;;;;;;5007543;28;20149;-71
2022/10/07 01:15:27;;;;;;;6.18;5.88;;;;;;;;;;4977042;28;20050;-71
2022/10/07 01:18:01;;;;;;;5.50;5.30;;;;;;;;;;4996376;28;20053;-71
2022/10/07 01:20:44;;;;;;;6.18;5.88;;;;;;;;;;5007447;28;20033;-71
2022/10/07 01:23:28;;;;;;;5.30;5.10;;;;;;;;;;5005474;28;20505;-70
2022/10/07 01:26:13;;;;;;;5.80;5.50;;;;;;;;;;4990040;28;20120;-70
2022/10/07 01:28:43;;;;;;;5.53;5.32;;;;;;;;;;4995279;28;20080;-71
2022/10/07 01:31:12;;;;;;;5.25;5.05;;;;;;;;;;5003134;28;20037;-70
2022/10/07 01:33:40;;;;;;;5.30;5.10;;;;;;;;;;4992717;28;20038;-71
2022/10/07 01:36:09;;;;;;;5.75;5.47;;;;;;;;;;4989239;28;20052;-71
2022/10/07 01:38:38;;;;;;;5.63;5.35;;;;;;;;;;5004813;28;20068;-71
2022/10/07 01:41:13;;;;;;;5.50;5.30;;;;;;;;;;5000676;28;20036;-71
2022/10/07 01:43:41;;;;;;;5.60;5.40;;;;;;;;;;5004172;28;20037;-71
2022/10/07 01:46:11;;;;;;;5.75;5.47;;;;;;;;;;5002098;28;20038;-71
2022/10/07 01:48:37;;;;;;;6.78;6.38;;;;;;;;;;5003889;28;20392;-71
2022/10/07 01:51:06;;;;;;;5.50;5.30;;;;;;;;;;4990472;28;20516;-71
2022/10/07 01:53:48;;;;;;;5.30;5.10;;;;;;;;;;4996683;28;20617;-71
2022/10/07 01:56:36;;;;;;;5.47;5.28;;;;;;;;;;4988190;28;20076;-71
2022/10/07 01:59:08;;;;;;;5.90;5.60;;;;;;;;;;5020583;28;20095;-70
2022/10/07 02:01:52;;;;;;;5.70;5.45;;;;;;;;;;4993805;28;20089;-70
2022/10/07 02:04:42;;;;;;;5.20;5.00;;;;;;;;;;4994502;28;20041;-71
2022/10/07 02:07:30;;;;;;;5.32;5.13;;;;;;;;;;4997601;28;20034;-71
2022/10/07 02:10:05;;;;;;;5.25;5.05;;;;;;;;;;5004847;28;20460;-71
2022/10/07 02:12:58;;;;;;;5.80;5.50;;;;;;;;;;4998572;28;20413;-71
2022/10/07 02:15:33;;;;;;;5.63;5.40;;;;;;;;;;4996674;28;20030;-71
2022/10/07 02:18:05;;;;;;;5.47;5.28;;;;;;;;;;4998229;28;20036;-71
2022/10/07 02:20:35;;;;;;;5.45;5.25;;;;;;;;;;5005499;28;20141;-71
2022/10/07 02:23:05;;;;;;;6.50;6.20;;;;;;;;;;5002354;28;20037;-71
2022/10/07 02:25:36;;;;;;;5.38;5.18;;;;;;;;;;4997188;28;20096;-71
2022/10/07 02:28:05;;;;;;;5.15;4.95;;;;;;;;;;4996818;28;20058;-71
2022/10/07 02:30:33;;;;;;;5.32;5.13;;;;;;;;;;4995921;28;20039;-71
2022/10/07 02:33:04;;;;;;;5.10;4.90;;;;;;;;;;4999405;28;20030;-71
2022/10/07 02:35:33;;;;;;;;;;;;;;;;;;4992922;28;20625;-71
2022/10/07 02:38:03;;;;;;;5.20;5.00;;;;;;;;;;4998930;28;19913;-71
2022/10/07 02:40:42;;;;;;;5.60;5.40;;;;;;;;;;4993933;28;20065;-71
2022/10/07 02:43:44;;;;;;;5.57;5.38;;;;;;;;;;4995008;28;20070;-71
2022/10/07 02:46:17;;;;;;;5.57;5.38;;;;;;;;;;4925080;29;20044;-71
2022/10/07 02:48:53;;;;;;;5.65;5.43;;;;;;;;;;4929032;29;20052;-71
2022/10/07 02:51:21;;;;;;;5.80;5.50;;;;;;;;;;4937242;29;20487;-71
2022/10/07 02:53:49;;;;;;;5.55;5.35;;;;;;;;;;4917597;29;20044;-71
2022/10/07 02:56:19;;;;;;;5.57;5.38;;;;;;;;;;4912433;29;20048;-71
2022/10/07 02:58:46;;;;;;;5.75;5.50;;;;;;;;;;4902210;29;20620;-71
2022/10/07 03:01:18;;;;;;;5.88;5.57;;;;;;;;;;4912179;29;20420;-71
2022/10/07 03:03:44;;;;;;;5.40;5.20;;;;;;;;;;4925050;29;20035;-71
2022/10/07 03:06:12;;;;;;;5.38;5.18;;;;;;;;;;4916261;29;20055;-71
2022/10/07 03:08:38;;;;;;;5.63;5.40;;;;;;;;;;4926908;29;20135;-71
2022/10/07 03:11:04;;;;;;;5.57;5.38;;;;;;;;;;4917849;29;20559;-71
2022/10/07 03:13:30;;;;;;;5.60;5.40;;;;;;;;;;4917869;29;20127;-71
2022/10/07 03:15:59;;;;;;;5.47;5.28;;;;;;;;;;4912147;29;20052;-71
2022/10/07 03:18:28;;;;;;;5.57;5.37;;;;;;;;;;4926829;29;20039;-71
2022/10/07 03:21:22;;;;;;;5.40;5.20;;;;;;;;;;4950452;28;20054;-71
2022/10/07 03:23:51;;;;;;;5.40;5.20;;;;;;;;;;5002502;28;20038;-71
2022/10/07 03:26:19;;;;;;;5.90;5.60;;;;;;;;;;5002677;28;20042;-71
2022/10/07 03:28:46;;;;;;;5.50;5.30;;;;;;;;;;4997637;28;20078;-71
2022/10/07 03:31:14;;;;;;;5.60;5.40;;;;;;;;;;5001763;28;20100;-71
2022/10/07 03:33:44;;;;;;;5.28;5.07;;;;;;;;;;4998702;28;20030;-70
2022/10/07 03:36:11;;;;;;;5.50;5.30;;;;;;;;;;4992561;28;20057;-71
2022/10/07 03:38:39;;;;;;;5.20;5.00;;;;;;;;;;4999694;28;20040;-71
2022/10/07 03:41:06;;;;;;;4.95;4.75;;;;;;;;;;5001451;28;20038;-71
2022/10/07 03:43:33;;;;;;;4.93;4.72;;;;;;;;;;4994043;28;20472;-71
2022/10/07 03:46:01;;;;;;;5.10;4.90;;;;;;;;;;5004741;28;20030;-71
2022/10/07 03:48:29;;;;;;;5.10;4.90;;;;;;;;;;5003052;28;20041;-71
2022/10/07 03:50:57;;;;;;;4.93;4.72;;;;;;;;;;4996135;28;20085;-71
2022/10/07 03:53:28;;;;;;;5.35;5.15;;;;;;;;;;4994561;28;20034;-71
2022/10/07 03:55:54;;;;;;;5.07;4.88;;;;;;;;;;4998247;28;20042;-71
2022/10/07 03:58:20;;;;;;;4.95;4.75;;;;;;;;;;4998423;28;20038;-71
2022/10/07 04:00:46;;;;;;;5.55;5.35;;;;;;;;;;4995475;28;20730;-71
2022/10/07 04:03:14;;;;;;;5.47;5.28;;;;;;;;;;4997247;28;20041;-71
2022/10/07 04:05:41;;;;;;;5.72;5.45;;;;;;;;;;4995582;28;20042;-71
2022/10/07 04:08:09;;;;;;;5.82;5.53;;;;;;;;;;4985438;28;20505;-71
2022/10/07 04:10:34;;;;;;;5.60;5.40;;;;;;;;;;4991278;28;20034;-71
2022/10/07 04:13:00;;;;;;;5.70;5.40;;;;;;;;;;5005129;28;20087;-71
2022/10/07 04:15:26;;;;;;;6.10;5.80;;;;;;;;;;4977258;28;20034;-71
2022/10/07 04:17:58;;;;;;;6.18;5.78;;;;;;;;;;5021034;28;20038;-71
2022/10/07 04:20:25;;;;;;;6.18;5.88;;;;;;;;;;4997501;28;20038;-71
2022/10/07 04:22:52;;;;;;;5.88;5.57;;;;;;;;;;4995422;28;20049;-71
2022/10/07 04:25:33;;;;;;;5.85;5.55;;;;;;;;;;5004081;28;20038;-71
2022/10/07 04:28:04;;;;;;;5.88;5.57;;;;;;;;;;5003716;28;20034;-70
2022/10/07 04:30:33;;;;;;;6.20;5.90;;;;;;;;;;4994198;28;20034;-71
2022/10/07 04:33:03;;;;;;;6.00;5.70;;;;;;;;;;4993537;28;20504;-71
2022/10/07 04:35:30;;;;;;;6.50;6.20;;;;;;;;;;4997182;28;20035;-71
2022/10/07 04:37:56;;;;;;;6.00;5.70;;;;;;;;;;5001212;28;20099;-71
2022/10/07 04:40:26;;;;;;;5.90;5.60;;;;;;;;;;4993454;28;20430;-71
2022/10/07 04:45:37;;;;;;;6.18;5.88;;;;;;;;;;5006366;28;20157;-71
2022/10/07 04:48:07;;;;;;;6.25;5.95;;;;;;;;;;5004835;28;20038;-71
2022/10/07 04:50:37;;;;;;;6.47;6.18;;;;;;;;;;5000440;28;20046;-71
2022/10/07 04:53:05;;;;;;;6.07;5.78;;;;;;;;;;5000822;28;20141;-70
2022/10/07 04:55:42;;;;;;;6.65;6.35;;;;;;;;;;4993095;28;20037;-70
2022/10/07 04:58:08;;;;;;;6.50;6.20;;;;;;;;;;4994305;28;20513;-71
2022/10/07 05:00:40;;;;;;;6.43;6.13;;;;;;;;;;5020389;28;20057;-70
2022/10/07 05:03:06;;;;;;;6.72;6.43;;;;;;;;;;5002333;28;20091;-71
2022/10/07 05:05:33;;;;;;;6.65;6.35;;;;;;;;;;5006824;28;20037;-71
2022/10/07 05:07:59;;;;;;;6.85;6.45;;;;;;;;;;5007191;28;20061;-71
2022/10/07 05:10:26;;;;;;;6.10;5.80;;;;;;;;;;5001987;28;20030;-71
2022/10/07 05:12:52;;;;;;;6.40;6.10;;;;;;;;;;5007394;28;20079;-71
2022/10/07 05:15:18;;;;;;;6.13;5.82;;;;;;;;;;5006273;28;20109;-71
2022/10/07 05:17:43;;;;;;;6.35;6.05;;;;;;;;;;5007323;28;20037;-70
2022/10/07 05:20:10;;;;;;;6.38;6.07;;;;;;;;;;5001922;28;20103;-71
2022/10/07 05:22:37;;;;;;;6.18;5.88;;;;;;;;;;5003412;28;20069;-71
2022/10/07 05:25:03;;;;;;;6.25;5.95;;;;;;;;;;5008595;28;20049;-71
2022/10/07 05:27:31;;;;;;;6.50;6.20;;;;;;;;;;5003248;28;20461;-71
2022/10/07 05:29:57;;;;;;;6.40;6.10;;;;;;;;;;4994385;28;20117;-70
2022/10/07 05:32:23;;;;;;;6.20;5.90;;;;;;;;;;4994200;28;20117;-71
2022/10/07 05:34:48;;;;;;;6.20;5.90;;;;;;;;;;5004361;28;20022;-71
2022/10/07 05:37:14;;;;;;;6.20;5.90;;;;;;;;;;5002043;28;20721;-72
2022/10/07 05:39:41;;;;;;;6.45;6.15;;;;;;;;;;4998941;28;20450;-71
2022/10/07 05:42:12;;;;;;;6.20;5.90;;;;;;;;;;5005309;28;20117;-71
2022/10/07 05:44:43;;;;;;;6.30;6.00;;;;;;;;;;5007183;28;20045;-72
2022/10/07 05:47:11;;;;;;;6.43;6.13;;;;;;;;;;5005234;28;20080;-71
2022/10/07 05:49:36;;;;;;;6.38;6.07;;;;;;;;;;5006670;28;20409;-71
2022/10/07 05:52:03;;;;;;;6.10;5.80;;;;;;;;;;5005125;28;20038;-71
2022/10/07 05:54:31;;;;;;;6.35;6.05;;;;;;;;;;5006255;28;20038;-71
2022/10/07 05:56:57;;;;;;;6.40;6.10;;;;;;;;;;4998758;28;20026;-71
2022/10/07 05:59:23;;;;;;;6.25;5.95;;;;;;;;;;4999730;28;20033;-71
2022/10/07 06:01:49;;;;;;;6.25;5.95;;;;;;;;;;5001784;28;20045;-71
2022/10/07 06:04:18;;;;;;;6.05;5.75;;;;;;;;;;5021370;28;20061;-71
2022/10/07 06:06:46;;;;;;;7.22;6.82;;;;;;;;;;5006581;28;20042;-71
2022/10/07 06:14:48;;;;;;;6.00;5.70;;;;;;;;;;5011228;28;20501;-71
2022/10/07 06:17:13;;;;;;;6.10;5.80;;;;;;;;;;5011953;28;20029;-71
2022/10/07 06:19:40;;;;;;;6.00;5.70;;;;;;;;;;4997680;28;20037;-71
2022/10/07 06:22:08;;;;;;;5.97;5.68;;;;;;;;;;5001876;28;20088;-71
2022/10/07 06:24:35;;;;;;;6.00;5.70;;;;;;;;;;5001065;28;20038;-71
2022/10/07 06:27:02;;;;;;;6.05;5.75;;;;;;;;;;5004108;28;20037;-71
2022/10/07 06:29:28;;;;;;;6.32;6.03;;;;;;;;;;5012161;28;20038;-71
2022/10/07 06:31:54;;;;;;;8.18;7.78;;;;;;;;;;5012197;28;20073;-70
2022/10/07 06:34:19;;;;;;;5.68;5.40;;;;;;;;;;5002884;28;20046;-71
2022/10/07 06:36:46;;;;;;;6.13;5.82;;;;;;;;;;5012897;28;20071;-71
2022/10/07 06:39:16;;;;;;;6.10;5.80;;;;;;;;;;5008474;28;20083;-70
2022/10/07 06:41:42;;;;;;;6.07;5.78;;;;;;;;;;4995901;28;20088;-70
2022/10/07 06:44:43;;;;;;;6.30;6.00;;;;;;;;;;4994317;28;20034;-71
2022/10/07 06:47:13;;;;;;;6.15;5.85;;;;;;;;;;5009723;28;20044;-70
2022/10/07 06:49:41;;;;;;;6.27;5.97;;;;;;;;;;4997916;28;20034;-71
2022/10/07 06:52:07;;;;;;;6.40;6.10;;;;;;;;;;5012199;28;20733;-71
2022/10/07 06:54:33;;;;;;;6.07;5.78;;;;;;;;;;5004349;28;20037;-71
2022/10/07 06:56:59;;;;;;;5.60;5.40;;;;;;;;;;5007951;28;20437;-71
2022/10/07 06:59:24;;;;;;;6.00;5.70;;;;;;;;;;5005335;28;20029;-71
2022/10/07 07:01:57;;;;;;;6.53;6.22;;;;;;;;;;4984381;28;20038;-71
2022/10/07 07:04:24;;;;;;;6.22;5.93;;;;;;;;;;5012029;28;20029;-70
2022/10/07 07:06:49;;;;;;;5.95;5.65;;;;;;;;;;5005699;28;20061;-70
2022/10/07 07:09:15;;;;;;;6.07;5.78;;;;;;;;;;5012970;28;20093;-71
2022/10/07 07:11:44;;;;;;;6.18;5.88;;;;;;;;;;5001228;28;20042;-71
2022/10/07 07:14:18;;;;;;;6.50;6.20;;;;;;;;;;5006046;28;20493;-70
2022/10/07 07:16:49;;;;;;;5.90;5.60;;;;;;;;;;4996737;28;20037;-71
2022/10/07 07:19:16;;;;;;;5.80;5.50;;;;;;;;;;5001964;28;20040;-71
2022/10/07 07:21:42;;;;;;;6.40;6.10;;;;;;;;;;5001442;28;20038;-71
2022/10/07 07:24:14;;;;;;;6.05;5.75;;;;;;;;;;5002121;28;20105;-71
2022/10/07 07:26:40;;;;;;;6.30;6.00;;;;;;;;;;4997560;28;20026;-71
2022/10/07 07:29:10;;;;;;;6.20;5.90;;;;;;;;;;5003779;28;20084;-71
2022/10/07 07:31:41;;;;;;;5.93;5.63;;;;;;;;;;5004367;28;20045;-71
2022/10/07 07:34:12;;;;;;;6.53;6.22;;;;;;;;;;4999685;28;20036;-70
2022/10/07 07:36:44;;;;;;;6.45;6.15;;;;;;;;;;5001225;28;20567;-71
2022/10/07 07:39:14;;;;;;;6.53;6.22;;;;;;;;;;4998600;28;20128;-71
2022/10/07 07:41:46;;;;;;;6.47;6.18;;;;;;;;;;5002330;28;20033;-71
2022/10/07 07:44:14;;;;;;;6.10;5.80;;;;;;;;;;5000109;28;20030;-71
2022/10/07 07:46:44;;;;;;;7.10;6.70;;;;;;;;;;4999381;28;20026;-71
2022/10/07 07:49:12;;;;;;;6.18;5.88;;;;;;;;;;4998207;28;20030;-71
2022/10/07 07:51:41;;;;;;;6.37;6.07;;;;;;;;;;4993414;28;20026;-71
2022/10/07 07:54:08;;;;;;;6.20;5.90;;;;;;;;;;5012069;28;20065;-71
2022/10/07 07:56:34;;;;;;;6.22;5.93;;;;;;;;;;5003064;28;20049;-71
2022/10/07 07:59:01;;;;;;;6.22;5.93;;;;;;;;;;5002576;28;20456;-71
2022/10/07 08:01:30;;;;;;;5.95;5.65;;;;;;;;;;5003415;28;20045;-71
2022/10/07 08:03:56;;;;;;;6.10;5.80;;;;;;;;;;4977005;28;20123;-71
2022/10/07 08:06:26;;;;;;;6.32;6.03;;;;;;;;;;4999607;28;20038;-71
2022/10/07 08:08:58;;;;;;;6.40;6.10;;;;;;;;;;4997100;28;20057;-71
2022/10/07 08:11:24;;;;;;;6.00;5.70;;;;;;;;;;5004552;28;20062;-71
2022/10/07 08:13:50;;;;;;;6.13;5.82;;;;;;;;;;4994133;28;20044;-71
2022/10/07 08:16:19;;;;;;;6.18;5.88;;;;;;;;;;4982077;28;20102;-71
2022/10/07 08:18:48;;;;;;;6.40;6.10;;;;;;;;;;4996149;28;20037;-71
2022/10/07 08:21:19;;;;;;;6.57;6.28;;;;;;;;;;5003285;28;20034;-71
2022/10/07 08:23:53;;;;;;;6.60;6.30;;;;;;;;;;4999146;28;20509;-71
2022/10/07 08:26:20;;;;;;;6.25;5.95;;;;;;;;;;5005122;28;20066;-71
2022/10/07 08:28:47;;;;;;;6.00;5.70;;;;;;;;;;5001645;28;20486;-71
2022/10/07 08:31:16;;;;;;;6.10;5.80;;;;;;;;;;5001019;28;20030;-71
2022/10/07 08:33:43;;;;;;;6.40;6.10;;;;;;;;;;4997771;28;20060;-71
2022/10/07 08:36:12;;;;;;;6.50;6.20;;;;;;;;;;4997751;28;20035;-71
2022/10/07 08:38:39;;;;;;;6.13;5.82;;;;;;;;;;5003913;28;20042;-71
2022/10/07 08:41:08;;;;;;;6.32;6.03;;;;;;;;;;5000796;28;20038;-71
2022/10/07 08:43:36;;;;;;;6.32;6.03;;;;;;;;;;5005949;28;20466;-71
2022/10/07 08:46:03;;;;;;;6.28;5.97;;;;;;;;;;5008866;28;20542;-71
2022/10/07 08:48:33;;;;;;;6.13;5.82;;;;;;;;;;5004574;28;20034;-71
2022/10/07 08:51:18;;;;;;;6.20;5.90;;;;;;;;;;5007105;28;20114;-71
2022/10/07 08:53:48;;;;;;;5.95;5.65;;;;;;;;;;5008949;28;20053;-71
2022/10/07 08:56:16;;;;;;;6.00;5.70;;;;;;;;;;5009100;28;20639;-71
2022/10/07 08:59:01;;;;;;;5.70;5.40;;;;;;;;;;4986303;28;20030;-71
2022/10/07 09:01:48;;;;;;;5.60;5.38;;;;;;;;;;4993204;28;20073;-71
2022/10/07 09:04:40;;;;;;;5.00;4.80;;;;;;;;;;5001701;28;20627;-71
2022/10/07 09:07:30;;;;;;;5.88;5.57;;;;;;;;;;4993965;28;20048;-71
2022/10/07 09:10:08;;;;;;;5.43;5.22;;;;;;;;;;4998653;28;20052;-71
2022/10/07 09:12:42;;;;;;;5.80;5.50;;;;;;;;;;5005300;28;20034;-71
2022/10/07 09:15:19;;;;;;;5.80;5.50;;;;;;;;;;5002839;28;20036;-71
2022/10/07 09:18:22;;;;;;;5.20;5.00;;;;;;;;;;5003632;28;20152;-71
2022/10/07 09:20:52;;;;;;;5.43;5.22;;;;;;;;;;4998054;28;20045;-71
2022/10/07 09:23:29;;;;;;;6.22;5.93;;;;;;;;;;5007906;28;20030;-71
2022/10/07 09:25:55;;;;;;;4.80;4.60;;;;;;;;;;4999143;28;20042;-71
2022/10/07 09:28:28;;;;;;;4.95;4.75;;;;;;;;;;4998068;28;20198;-71
2022/10/07 09:30:55;;;;;;;5.10;4.90;;;;;;;;;;4999584;28;20048;-71
2022/10/07 09:33:22;;;;;;;5.10;4.90;;;;;;;;;;4998642;28;20472;-71
2022/10/07 09:35:53;;;;;;;5.40;5.20;;;;;;;;;;4998753;28;20053;-72
2022/10/07 09:38:37;;;;;;;6.18;5.88;;;;;;;;;;5006014;28;20046;-72
2022/10/07 09:41:16;;;;;;;6.43;6.13;;;;;;;;;;4989652;28;20069;-72
2022/10/07 09:43:57;;;;;;;6.40;6.10;;;;;;;;;;4999475;28;20064;-72
2022/10/07 09:46:34;;;;;;;5.80;5.50;;;;;;;;;;5002256;28;20033;-71
2022/10/07 09:49:04;;;;;;;6.43;6.13;;;;;;;;;;5002960;28;20034;-72
2022/10/07 09:51:31;;;;;;;6.90;6.60;;;;;;;;;;5002526;28;20153;-72
2022/10/07 09:54:01;;;;;;;6.00;5.70;;;;;;;;;;5000190;28;20041;-71
2022/10/07 09:56:41;;;;;;;6.30;6.00;;;;;;;;;;5005520;28;20048;-72
2022/10/07 09:59:23;;;;;;;6.20;5.90;;;;;;;;;;4997327;28;20042;-72
2022/10/07 10:01:52;;;;;;;5.40;5.20;;;;;;;;;;4998470;28;20058;-72
2022/10/07 10:04:19;;;;;;;5.55;5.32;;;;;;;;;;5003124;28;20383;-72
2022/10/07 10:06:50;;;;;;;5.60;5.40;;;;;;;;;;5001420;28;20065;-72
2022/10/07 10:09:21;;;;;;;5.20;5.00;;;;;;;;;;5002653;28;20034;-72
2022/10/07 10:12:02;;;;;;;5.90;5.60;;;;;;;;;;5003093;28;20088;-72
2022/10/07 10:14:39;;;;;;;5.20;5.00;;;;;;;;;;5001534;28;20041;-72
2022/10/07 10:17:04;;;;;;;5.40;5.20;;;;;;;;;;5007936;28;20128;-72
2022/10/07 10:19:30;;;;;;;6.20;5.80;;;;;;;;;;5007994;28;20062;-71
2022/10/07 10:21:57;;;;;;;5.72;5.47;;;;;;;;;;5005652;28;20139;-72
2022/10/07 10:27:24;;;;;;;5.38;5.18;;;;;;;;;;5007250;28;20034;-72
2022/10/07 10:30:02;;;;;;;5.82;5.53;;;;;;;;;;4996437;28;20472;-72
2022/10/07 10:33:03;;;;;;;5.35;5.15;;;;;;;;;;5000327;28;20034;-72
2022/10/07 10:35:33;;;;;;;5.72;5.43;;;;;;;;;;4994496;28;20054;-72
2022/10/07 10:38:32;;;;;;;5.38;5.18;;;;;;;;;;4998984;28;20430;-72
2022/10/07 10:41:23;;;;;;;5.97;5.47;;;;;;;;;;4997671;28;20034;-71
2022/10/07 10:44:03;;;;;;;5.43;5.22;;;;;;;;;;5000153;28;20037;-71
2022/10/07 10:46:46;;;;;;;5.50;5.30;;;;;;;;;;4997330;28;20057;-71
2022/10/07 10:49:47;;;;;;;5.50;5.30;;;;;;;;;;5000298;28;20073;-72
2022/10/07 10:52:31;;;;;;;5.38;5.18;;;;;;;;;;4999278;28;20037;-72
2022/10/07 10:55:13;;;;;;;5.30;5.10;;;;;;;;;;4998219;28;20088;-72
2022/10/07 10:58:14;;;;;;;5.10;4.90;;;;;;;;;;4997966;28;20509;-72
2022/10/07 11:01:06;;;;;;;5.95;5.65;;;;;;;;;;4920116;29;20134;-72
2022/10/07 11:03:41;;;;;;;6.13;5.82;;;;;;;;;;5001603;28;20042;-72
2022/10/07 11:06:11;;;;;;;5.40;5.20;;;;;;;;;;5001309;28;20053;-72
2022/10/07 11:08:37;;;;;;;5.97;5.68;;;;;;;;;;5001118;28;20060;-72
2022/10/07 11:11:06;;;;;;;5.97;5.68;;;;;;;;;;5000265;28;20122;-72
2022/10/07 11:13:46;;;;;;;5.25;5.05;;;;;;;;;;5002928;28;20073;-72
2022/10/07 11:16:37;;;;;;;5.68;5.40;;;;;;;;;;5007408;28;20488;-72
2022/10/07 11:19:10;;;;;;;5.20;5.00;;;;;;;;;;5009737;28;20068;-72
2022/10/07 11:21:47;;;;;;;5.20;5.00;;;;;;;;;;5005435;28;20038;-72
2022/10/07 11:24:21;;;;;;;5.63;5.35;;;;;;;;;;5000759;28;20319;-72
2022/10/07 11:26:56;;;;;;;6.38;6.07;;;;;;;;;;5004819;28;20049;-72
2022/10/07 11:29:30;;;;;;;6.25;5.95;;;;;;;;;;5003419;28;20078;-72
2022/10/07 11:32:06;;;;;;;6.10;5.80;;;;;;;;;;5008966;28;20105;-72
2022/10/07 11:35:00;;;;;;;6.13;5.82;;;;;;;;;;5003847;28;20512;-73
2022/10/07 11:37:38;;;;;;;6.00;5.70;;;;;;;;;;5004055;28;20033;-72
2022/10/07 11:40:04;;;;;;;;;;;;;;;;;;5000950;28;20035;-72
2022/10/07 11:42:39;;;;;;;6.15;5.85;;;;;;;;;;5004185;28;19921;-72
2022/10/07 11:45:16;;;;;;;6.18;5.88;;;;;;;;;;4995753;28;20034;-72
2022/10/07 11:47:52;;;;;;;6.22;5.93;;;;;;;;;;5004151;28;20451;-71
2022/10/07 11:50:26;;;;;;;6.78;6.47;;;;;;;;;;5009083;28;20038;-71
2022/10/07 11:52:59;;;;;;;6.40;6.10;;;;;;;;;;4999607;28;20113;-72
2022/10/07 11:55:31;;;;;;;6.68;6.38;;;;;;;;;;5002463;28;20026;-72
2022/10/07 11:58:00;;;;;;;7.05;6.65;;;;;;;;;;5005698;28;20029;-72
2022/10/07 12:00:34;;;;;;;6.78;6.47;;;;;;;;;;4998169;28;20040;-72
2022/10/07 12:03:23;;;;;;;6.72;6.43;;;;;;;;;;5006180;28;20030;-72
2022/10/07 12:05:49;;;;;;;6.78;6.47;;;;;;;;;;5001175;28;20045;-72
2022/10/07 12:08:25;;;;;;;6.68;6.38;;;;;;;;;;5006839;28;20037;-72
2022/10/07 12:10:52;;;;;;;6.78;6.47;;;;;;;;;;5003655;28;20030;-72
2022/10/07 12:13:19;;;;;;;6.80;6.50;;;;;;;;;;4996555;28;20049;-72
2022/10/07 12:15:46;;;;;;;7.30;6.90;;;;;;;;;;5005412;28;20080;-72
2022/10/07 12:18:16;;;;;;;7.25;6.88;;;;;;;;;;4985126;28;20045;-71
2022/10/07 12:20:48;;;;;;;6.80;6.50;;;;;;;;;;4998743;28;20397;-72
2022/10/07 12:23:24;;;;;;;6.65;6.35;;;;;;;;;;4992989;28;20062;-71
2022/10/07 12:26:29;;;;;;;6.70;6.40;;;;;;;;;;4996592;28;20061;-72
2022/10/07 12:28:56;;;;;;;6.80;6.50;;;;;;;;;;4998327;28;20030;-72
2022/10/07 12:31:21;;;;;;;7.28;6.88;;;;;;;;;;4999936;28;20418;-71
2022/10/07 12:33:57;;;;;;;6.65;6.35;;;;;;;;;;5006442;28;20064;-72
2022/10/07 12:36:24;;;;;;;6.72;6.43;;;;;;;;;;4999916;28;20027;-72
2022/10/07 12:41:27;;;;;;;7.47;7.07;;;;;;;;;;5002903;28;20080;-72
2022/10/07 12:44:06;;;;;;;7.32;6.93;;;;;;;;;;4993202;28;20064;-72
2022/10/07 12:46:40;;;;;;;6.97;6.68;;;;;;;;;;4995220;28;20064;-72
2022/10/07 12:49:19;;;;;;;7.20;6.80;;;;;;;;;;4996705;28;20054;-73
2022/10/07 12:51:45;;;;;;;7.82;7.43;;;;;;;;;;5006321;28;20596;-72
2022/10/07 12:54:19;;;;;;;7.30;6.90;;;;;;;;;;5000398;28;20117;-72
2022/10/07 12:56:45;;;;;;;7.28;6.88;;;;;;;;;;5001676;28;20026;-72
2022/10/07 12:59:56;;;;;;;7.25;6.88;;;;;;;;;;5007804;28;20057;-72
2022/10/07 13:02:37;;;;;;;7.32;6.93;;;;;;;;;;4967411;28;20046;-72
2022/10/07 13:05:11;;;;;;;6.85;6.55;;;;;;;;;;4999080;28;20038;-73
2022/10/07 13:07:58;;;;;;;7.00;6.70;;;;;;;;;;4991698;28;20038;-72
2022/10/07 13:10:43;;;;;;;6.80;6.50;;;;;;;;;;4996330;28;20034;-72
2022/10/07 13:13:18;;;;;;;6.60;6.30;;;;;;;;;;4993730;28;20140;-73
2022/10/07 13:15:49;;;;;;;6.78;6.47;;;;;;;;;;4993736;28;20057;-72
2022/10/07 13:18:43;;;;;;;7.53;7.03;;;;;;;;;;4994635;28;20053;-72
2022/10/07 13:21:15;;;;;;;7.03;6.72;;;;;;;;;;5002678;28;20066;-72
2022/10/07 13:23:50;;;;;;;7.15;6.80;;;;;;;;;;4992801;28;20069;-71
2022/10/07 13:26:16;;;;;;;7.32;6.93;;;;;;;;;;5001657;28;20526;-72
2022/10/07 13:28:50;;;;;;;7.40;7.00;;;;;;;;;;4999846;28;20120;-72
2022/10/07 13:31:28;;;;;;;6.78;6.45;;;;;;;;;;5003285;28;20038;-72
2022/10/07 13:33:55;;;;;;;7.72;7.32;;;;;;;;;;4993484;28;20046;-72
2022/10/07 13:36:27;;;;;;;7.60;7.20;;;;;;;;;;5000933;28;20030;-71
2022/10/07 13:39:10;;;;;;;7.63;7.22;;;;;;;;;;4998553;28;20060;-71
2022/10/07 13:41:37;;;;;;;7.18;6.80;;;;;;;;;;4992828;28;20073;-74
2022/10/07 13:44:04;;;;;;;7.50;7.10;;;;;;;;;;4993615;28;20042;-72
2022/10/07 13:46:33;;;;;;;7.10;6.80;;;;;;;;;;4997042;28;20117;-72
2022/10/07 13:48:59;;;;;;;6.47;6.18;;;;;;;;;;4986093;28;20084;-71
2022/10/07 13:51:32;;;;;;;6.70;6.40;;;;;;;;;;4987223;28;20139;-71
2022/10/07 13:54:00;;;;;;;8.07;7.47;;;;;;;;;;4986281;28;20105;-73
2022/10/07 13:56:47;;;;;;;6.32;6.03;;;;;;;;;;4987657;28;20038;-74
2022/10/07 13:59:16;;;;;;;7.30;6.90;;;;;;;;;;4993368;28;20442;-71
2022/10/07 14:02:01;;;;;;;7.18;6.85;;;;;;;;;;4994623;28;20038;-73
2022/10/07 14:04:32;;;;;;;6.82;6.53;;;;;;;;;;4995743;28;20564;-71
2022/10/07 14:07:10;;;;;;;7.07;6.78;;;;;;;;;;5008630;28;20090;-72
2022/10/07 14:09:57;;;;;;;6.63;6.32;;;;;;;;;;5002461;28;20036;-71
2022/10/07 14:12:31;;;;;;;6.53;6.22;;;;;;;;;;4999752;28;20036;-72
2022/10/07 14:15:05;;;;;;;6.68;6.38;;;;;;;;;;5003486;28;20417;-72
2022/10/07 14:17:39;;;;;;;6.70;6.40;;;;;;;;;;5004353;28;20493;-71
2022/10/07 14:20:19;;;;;;;6.53;6.22;;;;;;;;;;4994345;28;20390;-71
2022/10/07 14:22:52;;;;;;;6.55;6.25;;;;;;;;;;4999144;28;20437;-71
2022/10/07 14:25:20;;;;;;;6.55;6.25;;;;;;;;;;4998872;28;20065;-71
2022/10/07 14:27:53;;;;;;;7.00;6.70;;;;;;;;;;5000475;28;20029;-71
2022/10/07 14:36:23;;;;;;;6.63;6.32;;;;;;;;;;5001153;28;20312;-71
2022/10/07 14:38:50;;;;;;;6.32;6.03;;;;;;;;;;5001762;28;20056;-71
2022/10/07 14:41:19;;;;;;;6.55;6.25;;;;;;;;;;5006899;28;20104;-71
2022/10/07 14:43:47;;;;;;;6.63;6.32;;;;;;;;;;5004619;28;20041;-71
2022/10/07 14:46:19;;;;;;;6.60;6.30;;;;;;;;;;5003355;28;20429;-71
2022/10/07 14:48:46;;;;;;;16.13;6.93;;;;;;;;;;5001090;28;20038;-71
2022/10/07 14:51:14;;;;;;;7.32;6.93;;;;;;;;;;4998328;28;20066;-71
2022/10/07 14:53:41;;;;;;;6.70;6.40;;;;;;;;;;5011044;28;20049;-71
2022/10/07 14:56:22;;;;;;;6.57;6.28;;;;;;;;;;5003256;28;20041;-71
2022/10/07 14:58:47;;;;;;;7.55;7.15;;;;;;;;;;5004153;28;20042;-71
2022/10/07 15:01:13;;;;;;;7.03;6.70;;;;;;;;;;5000985;28;20126;-71
2022/10/07 15:03:38;;;;;;;7.05;6.75;;;;;;;;;;5008736;28;20432;-70
2022/10/07 15:06:05;;;;;;;6.93;6.63;;;;;;;;;;5007293;28;20038;-71
2022/10/07 15:08:31;;;;;;;6.90;6.60;;;;;;;;;;4998362;28;20095;-72
2022/10/07 15:10:56;;;;;;;6.70;6.40;;;;;;;;;;5001337;28;20037;-71
2022/10/07 15:13:22;;;;;;;6.90;6.60;;;;;;;;;;5003301;28;20405;-72
2022/10/07 15:15:48;;;;;;;6.68;6.38;;;;;;;;;;5001215;28;20113;-71
2022/10/07 15:18:13;;;;;;;7.10;6.80;;;;;;;;;;4999240;28;20026;-71
2022/10/07 15:20:39;;;;;;;7.00;6.70;;;;;;;;;;4999320;28;20030;-73
2022/10/07 15:23:06;;;;;;;7.15;6.80;;;;;;;;;;5003018;28;20506;-72
2022/10/07 15:25:33;;;;;;;6.75;6.45;;;;;;;;;;5005262;28;20037;-70
2022/10/07 15:28:02;;;;;;;7.05;6.75;;;;;;;;;;5002614;28;20037;-70
2022/10/07 15:30:28;;;;;;;7.30;6.90;;;;;;;;;;4995410;28;20498;-73